Time;durP1;ratioP1;P1;durP2;ratioP2;P2;SDS_P1;SDS_P2;PMS_P1;PMS_P2;Temp;Humidity;BMP_temperature;BMP_pressure;BME280_temperature;BME280_humidity;BME280_pressure;Samples;Min_cycle;Max_cycle;Signal;HPM_P1;HPM_P2
2021/06/17 00:01:16;;;;;;;12.20;10.48;;;;;;;;;;5086511;28;20177;-73
2021/06/17 00:03:41;;;;;;;12.05;10.73;;;;;;;;;;5092457;28;20251;-73
2021/06/17 00:06:06;;;;;;;11.25;10.07;;;;;;;;;;5087730;28;20215;-73
2021/06/17 00:08:32;;;;;;;14.40;10.77;;;;;;;;;;5074658;28;20190;-73
2021/06/17 00:10:57;;;;;;;11.30;10.13;;;;;;;;;;5074608;28;20192;-73
2021/06/17 00:13:24;;;;;;;13.50;11.45;;;;;;;;;;5070538;28;20201;-73
2021/06/17 00:15:50;;;;;;;12.30;11.10;;;;;;;;;;5067299;28;20181;-73
2021/06/17 00:18:16;;;;;;;12.57;9.88;;;;;;;;;;5065884;28;20204;-73
2021/06/17 00:20:41;;;;;;;11.07;10.18;;;;;;;;;;5056601;28;20337;-72
2021/06/17 00:23:07;;;;;;;12.48;11.48;;;;;;;;;;5065779;28;20251;-72
2021/06/17 00:25:33;;;;;;;13.60;11.68;;;;;;;;;;5055635;28;20193;-73
2021/06/17 00:27:58;;;;;;;13.38;11.93;;;;;;;;;;5059887;28;22017;-72
2021/06/17 00:30:23;;;;;;;13.20;11.77;;;;;;;;;;5051718;28;20532;-72
2021/06/17 00:32:51;;;;;;;15.35;13.13;;;;;;;;;;5066222;28;20223;-73
2021/06/17 00:35:16;;;;;;;15.07;13.00;;;;;;;;;;5056442;28;20178;-72
2021/06/17 00:37:41;;;;;;;14.40;13.00;;;;;;;;;;5054921;28;20570;-72
2021/06/17 00:40:09;;;;;;;15.18;12.27;;;;;;;;;;5051665;28;20258;-72
2021/06/17 00:42:35;;;;;;;15.30;12.75;;;;;;;;;;5057863;28;20177;-72
2021/06/17 00:45:00;;;;;;;18.33;13.98;;;;;;;;;;5060968;28;20259;-73
2021/06/17 00:47:25;;;;;;;14.20;12.52;;;;;;;;;;5061168;28;20189;-72
2021/06/17 00:49:51;;;;;;;17.08;13.75;;;;;;;;;;5060797;28;20189;-72
2021/06/17 00:52:17;;;;;;;13.60;12.40;;;;;;;;;;5057691;28;20185;-73
2021/06/17 00:54:42;;;;;;;15.73;14.23;;;;;;;;;;5064013;28;20202;-72
2021/06/17 00:57:08;;;;;;;14.88;13.57;;;;;;;;;;5054273;28;20180;-73
2021/06/17 00:59:34;;;;;;;16.40;14.77;;;;;;;;;;5040871;28;20188;-73
2021/06/17 01:01:59;;;;;;;15.30;13.82;;;;;;;;;;5050181;28;20658;-73
2021/06/17 01:04:26;;;;;;;17.10;15.38;;;;;;;;;;5049347;28;20214;-73
2021/06/17 01:06:51;;;;;;;16.75;15.05;;;;;;;;;;5049823;28;20208;-73
2021/06/17 01:09:30;;;;;;;17.52;15.82;;;;;;;;;;5051582;28;20843;-73
2021/06/17 01:12:10;;;;;;;17.35;15.85;;;;;;;;;;5055798;28;20517;-73
2021/06/17 01:14:50;;;;;;;18.13;16.33;;;;;;;;;;5047156;28;20350;-73
2021/06/17 01:17:17;;;;;;;20.42;16.50;;;;;;;;;;5049908;28;20210;-74
2021/06/17 01:19:53;;;;;;;23.77;18.40;;;;;;;;;;5053824;28;20186;-74
2021/06/17 01:22:29;;;;;;;17.98;16.33;;;;;;;;;;5050954;28;20181;-73
2021/06/17 01:25:13;;;;;;;19.05;17.20;;;;;;;;;;5050296;28;20247;-74
2021/06/17 01:27:56;;;;;;;18.92;17.02;;;;;;;;;;5054980;28;20282;-73
2021/06/17 01:30:22;;;;;;;17.85;16.25;;;;;;;;;;5047344;28;20209;-73
2021/06/17 01:32:48;;;;;;;19.30;17.30;;;;;;;;;;5047049;28;20187;-73
2021/06/17 01:35:15;;;;;;;20.60;18.48;;;;;;;;;;5050180;28;20185;-73
2021/06/17 01:37:41;;;;;;;17.63;15.63;;;;;;;;;;5051445;28;20651;-73
2021/06/17 01:40:08;;;;;;;18.63;16.73;;;;;;;;;;5049545;28;20201;-74
2021/06/17 01:42:35;;;;;;;23.30;17.63;;;;;;;;;;5050530;28;20189;-73
2021/06/17 01:45:00;;;;;;;19.25;17.45;;;;;;;;;;5051853;28;20212;-73
2021/06/17 01:47:27;;;;;;;19.00;17.30;;;;;;;;;;5059431;28;20184;-73
2021/06/17 01:49:53;;;;;;;18.10;16.40;;;;;;;;;;5050849;28;20211;-74
2021/06/17 01:52:19;;;;;;;20.58;17.35;;;;;;;;;;5058177;28;20173;-73
2021/06/17 01:54:44;;;;;;;18.17;16.27;;;;;;;;;;5050422;28;20208;-74
2021/06/17 01:57:09;;;;;;;21.95;15.88;;;;;;;;;;5059165;28;20211;-73
2021/06/17 01:59:35;;;;;;;20.10;17.95;;;;;;;;;;5058154;28;20189;-73
2021/06/17 02:02:00;;;;;;;18.42;16.45;;;;;;;;;;5049090;28;20195;-74
2021/06/17 02:04:27;;;;;;;17.50;15.90;;;;;;;;;;5052580;28;20198;-73
2021/06/17 02:06:52;;;;;;;19.67;18.02;;;;;;;;;;5049510;28;20185;-73
2021/06/17 02:09:18;;;;;;;24.67;20.42;;;;;;;;;;5053039;28;20242;-73
2021/06/17 02:11:43;;;;;;;23.38;21.40;;;;;;;;;;5061884;28;20173;-73
2021/06/17 02:14:10;;;;;;;23.40;21.23;;;;;;;;;;5049257;28;20710;-73
2021/06/17 02:16:38;;;;;;;22.48;20.38;;;;;;;;;;5054433;28;20285;-73
2021/06/17 02:19:04;;;;;;;24.42;21.27;;;;;;;;;;5048094;28;20250;-73
2021/06/17 02:21:30;;;;;;;25.20;21.95;;;;;;;;;;5064196;28;20177;-73
2021/06/17 02:23:57;;;;;;;26.33;23.73;;;;;;;;;;5060336;28;20201;-73
2021/06/17 02:26:22;;;;;;;24.35;22.13;;;;;;;;;;5052225;28;20189;-73
2021/06/17 02:28:48;;;;;;;26.48;23.73;;;;;;;;;;5052938;28;20180;-73
2021/06/17 02:31:19;;;;;;;26.23;23.92;;;;;;;;;;5052018;28;20215;-74
2021/06/17 02:33:46;;;;;;;26.90;24.45;;;;;;;;;;5054454;28;20200;-73
2021/06/17 02:36:12;;;;;;;24.88;22.58;;;;;;;;;;5053346;28;20177;-73
2021/06/17 02:38:39;;;;;;;24.85;22.50;;;;;;;;;;5056572;28;20659;-73
2021/06/17 02:41:06;;;;;;;26.33;23.52;;;;;;;;;;5053925;28;20213;-74
2021/06/17 02:43:34;;;;;;;26.20;23.80;;;;;;;;;;5053417;28;22014;-73
2021/06/17 02:46:00;;;;;;;27.35;24.42;;;;;;;;;;5050842;28;20282;-74
2021/06/17 02:48:25;;;;;;;26.58;24.17;;;;;;;;;;5056228;28;20215;-74
2021/06/17 02:50:51;;;;;;;28.40;25.75;;;;;;;;;;5063765;28;20204;-74
2021/06/17 02:53:16;;;;;;;27.55;24.95;;;;;;;;;;5056910;28;20224;-73
2021/06/17 02:55:41;;;;;;;26.33;23.85;;;;;;;;;;5064157;28;20646;-74
2021/06/17 02:58:12;;;;;;;28.05;25.23;;;;;;;;;;5052558;28;20191;-74
2021/06/17 03:00:42;;;;;;;27.75;25.25;;;;;;;;;;5052587;28;20181;-73
2021/06/17 03:03:12;;;;;;;29.98;26.85;;;;;;;;;;5053924;28;20211;-73
2021/06/17 03:05:46;;;;;;;26.98;24.35;;;;;;;;;;5060932;28;20549;-73
2021/06/17 03:08:14;;;;;;;27.65;24.85;;;;;;;;;;5053360;28;20636;-74
2021/06/17 03:10:39;;;;;;;28.13;25.42;;;;;;;;;;5052818;28;20760;-74
2021/06/17 03:13:05;;;;;;;28.25;25.70;;;;;;;;;;5054569;28;20181;-72
2021/06/17 03:15:35;;;;;;;29.67;26.75;;;;;;;;;;5052951;28;20223;-72
2021/06/17 03:18:02;;;;;;;29.80;26.90;;;;;;;;;;5051504;28;20717;-72
2021/06/17 03:20:29;;;;;;;26.63;24.23;;;;;;;;;;5053443;28;20603;-73
2021/06/17 03:22:55;;;;;;;30.05;26.90;;;;;;;;;;5054510;28;20180;-73
2021/06/17 03:25:21;;;;;;;29.90;27.20;;;;;;;;;;5053716;28;20212;-74
2021/06/17 03:27:52;;;;;;;29.38;26.50;;;;;;;;;;5056734;28;20658;-73
2021/06/17 03:30:18;;;;;;;27.70;25.13;;;;;;;;;;5060735;28;20337;-72
2021/06/17 03:32:44;;;;;;;25.85;23.30;;;;;;;;;;5054132;28;20169;-73
2021/06/17 03:35:10;;;;;;;28.33;25.73;;;;;;;;;;5051748;28;20200;-72
2021/06/17 03:37:36;;;;;;;27.95;25.23;;;;;;;;;;5053825;28;20169;-73
2021/06/17 03:40:02;;;;;;;27.65;25.00;;;;;;;;;;5060488;28;20207;-73
2021/06/17 03:42:28;;;;;;;29.92;27.00;;;;;;;;;;5046262;28;20192;-73
2021/06/17 03:44:54;;;;;;;27.50;25.00;;;;;;;;;;5045748;28;20222;-73
2021/06/17 03:47:21;;;;;;;29.05;26.25;;;;;;;;;;5052076;28;20189;-73
2021/06/17 03:49:47;;;;;;;27.50;24.92;;;;;;;;;;5056454;28;20189;-73
2021/06/17 03:52:13;;;;;;;29.38;26.42;;;;;;;;;;5061703;28;22106;-73
2021/06/17 03:54:40;;;;;;;28.23;25.55;;;;;;;;;;5052037;28;20209;-73
2021/06/17 03:57:06;;;;;;;27.00;24.45;;;;;;;;;;5051606;28;20187;-73
2021/06/17 03:59:32;;;;;;;28.42;25.73;;;;;;;;;;5056147;28;20257;-73
2021/06/17 04:01:58;;;;;;;30.15;27.38;;;;;;;;;;5052004;28;20185;-73
2021/06/17 04:04:24;;;;;;;27.48;24.75;;;;;;;;;;5049675;28;20716;-73
2021/06/17 04:06:54;;;;;;;27.13;24.52;;;;;;;;;;5055808;28;20195;-73
2021/06/17 04:09:25;;;;;;;26.30;23.88;;;;;;;;;;5047797;28;20186;-73
2021/06/17 04:11:51;;;;;;;26.75;24.33;;;;;;;;;;5051692;28;20184;-73
2021/06/17 04:14:17;;;;;;;25.25;22.98;;;;;;;;;;5050884;28;20209;-72
2021/06/17 04:16:42;;;;;;;26.25;23.38;;;;;;;;;;5056300;28;20185;-72
2021/06/17 04:19:07;;;;;;;25.98;23.42;;;;;;;;;;5060875;28;20176;-72
2021/06/17 04:21:34;;;;;;;26.65;24.25;;;;;;;;;;5057183;28;20704;-72
2021/06/17 04:24:04;;;;;;;26.13;23.63;;;;;;;;;;5051381;28;20212;-72
2021/06/17 04:26:29;;;;;;;25.58;23.23;;;;;;;;;;5050907;28;20185;-72
2021/06/17 04:28:55;;;;;;;25.55;22.85;;;;;;;;;;5049746;28;20232;-72
2021/06/17 04:31:21;;;;;;;24.00;21.67;;;;;;;;;;5052305;28;20193;-72
2021/06/17 04:33:46;;;;;;;23.92;21.70;;;;;;;;;;5053261;28;20187;-73
2021/06/17 04:36:12;;;;;;;22.52;20.33;;;;;;;;;;5050721;28;20260;-73
2021/06/17 04:38:38;;;;;;;23.40;21.10;;;;;;;;;;5050676;28;20178;-73
2021/06/17 04:41:03;;;;;;;23.15;20.92;;;;;;;;;;5055781;28;20232;-72
2021/06/17 04:43:31;;;;;;;24.20;22.00;;;;;;;;;;5049133;28;20323;-72
2021/06/17 04:45:57;;;;;;;24.55;21.88;;;;;;;;;;5054273;28;20208;-72
2021/06/17 04:48:23;;;;;;;23.38;21.17;;;;;;;;;;5050718;28;20210;-73
2021/06/17 04:50:49;;;;;;;23.42;21.15;;;;;;;;;;5056501;28;20213;-73
2021/06/17 04:53:18;;;;;;;23.30;21.13;;;;;;;;;;5079405;28;20217;-73
2021/06/17 04:55:45;;;;;;;22.85;20.85;;;;;;;;;;5079393;28;20165;-73
2021/06/17 04:58:10;;;;;;;24.25;21.98;;;;;;;;;;5078107;28;20176;-73
2021/06/17 05:00:36;;;;;;;24.25;22.13;;;;;;;;;;5084270;28;20244;-72
2021/06/17 05:03:01;;;;;;;21.90;19.75;;;;;;;;;;5081696;28;20181;-73
2021/06/17 05:05:26;;;;;;;24.65;22.13;;;;;;;;;;5077513;28;20204;-72
2021/06/17 05:13:00;;;;;;;23.52;21.02;;;;;;;;;;5080443;28;20187;-73
2021/06/17 05:15:26;;;;;;;21.98;20.02;;;;;;;;;;5073497;28;20180;-73
2021/06/17 05:17:51;;;;;;;20.63;18.40;;;;;;;;;;5081583;28;20192;-73
2021/06/17 05:20:16;;;;;;;19.50;17.80;;;;;;;;;;5066294;28;20288;-73
2021/06/17 05:22:42;;;;;;;20.63;18.63;;;;;;;;;;5050712;28;20807;-73
2021/06/17 05:25:08;;;;;;;20.73;18.80;;;;;;;;;;5051490;28;20208;-73
2021/06/17 05:27:33;;;;;;;19.92;18.02;;;;;;;;;;5050936;28;20273;-73
2021/06/17 05:29:59;;;;;;;21.38;19.10;;;;;;;;;;5054040;28;20225;-73
2021/06/17 05:32:24;;;;;;;21.95;19.95;;;;;;;;;;5053642;28;20180;-73
2021/06/17 05:34:50;;;;;;;19.63;17.92;;;;;;;;;;5052604;28;20200;-73
2021/06/17 05:37:15;;;;;;;18.60;16.83;;;;;;;;;;5049355;28;20633;-73
2021/06/17 05:39:40;;;;;;;20.83;18.70;;;;;;;;;;5058028;28;20241;-73
2021/06/17 05:42:06;;;;;;;20.70;18.50;;;;;;;;;;5052279;28;20217;-72
2021/06/17 05:44:31;;;;;;;21.77;19.58;;;;;;;;;;5050547;28;20636;-76
2021/06/17 05:46:57;;;;;;;22.95;20.00;;;;;;;;;;5051080;28;20185;-74
2021/06/17 05:49:24;;;;;;;18.90;17.30;;;;;;;;;;5051260;28;20178;-74
2021/06/17 05:51:50;;;;;;;20.38;18.45;;;;;;;;;;5053340;28;20207;-76
2021/06/17 05:54:15;;;;;;;22.42;18.10;;;;;;;;;;5071553;28;20305;-74
2021/06/17 05:56:40;;;;;;;19.35;17.33;;;;;;;;;;5049921;28;20583;-75
2021/06/17 05:59:06;;;;;;;19.27;17.25;;;;;;;;;;5054463;28;20530;-75
2021/06/17 06:01:31;;;;;;;20.42;18.10;;;;;;;;;;5057493;28;20184;-77
2021/06/17 06:03:56;;;;;;;19.33;17.47;;;;;;;;;;5053278;28;20202;-76
2021/06/17 06:06:21;;;;;;;18.30;16.60;;;;;;;;;;5061266;28;20867;-74
2021/06/17 06:08:46;;;;;;;18.70;17.03;;;;;;;;;;5058685;28;21701;-74
2021/06/17 06:11:12;;;;;;;19.25;16.90;;;;;;;;;;5056539;28;20835;-74
2021/06/17 06:13:37;;;;;;;18.40;16.52;;;;;;;;;;5053657;28;20197;-76
2021/06/17 06:16:02;;;;;;;16.20;14.73;;;;;;;;;;5054749;28;20190;-74
2021/06/17 06:18:30;;;;;;;17.40;15.73;;;;;;;;;;5054883;28;20904;-74
2021/06/17 06:20:57;;;;;;;16.48;14.88;;;;;;;;;;5057424;28;20192;-76
2021/06/17 06:23:23;;;;;;;17.63;15.77;;;;;;;;;;5053268;28;20197;-75
2021/06/17 06:25:49;;;;;;;17.67;12.98;;;;;;;;;;5060171;28;20172;-75
2021/06/17 06:28:14;;;;;;;15.63;12.95;;;;;;;;;;5057615;28;20184;-75
2021/06/17 06:30:40;;;;;;;13.93;12.38;;;;;;;;;;5060033;28;20235;-74
2021/06/17 06:33:05;;;;;;;16.27;14.55;;;;;;;;;;5052605;28;20181;-74
2021/06/17 06:35:30;;;;;;;14.38;12.98;;;;;;;;;;5057400;28;20174;-75
2021/06/17 06:37:55;;;;;;;15.52;13.48;;;;;;;;;;5058444;28;20600;-75
2021/06/17 06:40:23;;;;;;;14.77;12.40;;;;;;;;;;5058820;28;20197;-75
2021/06/17 06:42:49;;;;;;;13.65;12.38;;;;;;;;;;5055461;28;20231;-76
2021/06/17 06:45:14;;;;;;;13.43;12.20;;;;;;;;;;5058232;28;20650;-75
2021/06/17 06:47:40;;;;;;;14.02;12.57;;;;;;;;;;5051734;28;20812;-74
2021/06/17 06:50:05;;;;;;;18.30;12.98;;;;;;;;;;5062671;28;20284;-74
2021/06/17 06:52:31;;;;;;;14.88;13.35;;;;;;;;;;5052848;28;20175;-76
2021/06/17 06:54:58;;;;;;;14.45;13.05;;;;;;;;;;5063069;28;20505;-76
2021/06/17 06:57:24;;;;;;;14.95;11.98;;;;;;;;;;5055131;28;20333;-76
2021/06/17 06:59:49;;;;;;;13.50;12.25;;;;;;;;;;5054971;28;20625;-75
2021/06/17 07:02:15;;;;;;;13.30;11.80;;;;;;;;;;5054595;28;20243;-75
2021/06/17 07:04:40;;;;;;;14.52;11.07;;;;;;;;;;5059894;28;20471;-75
2021/06/17 07:07:05;;;;;;;16.60;11.77;;;;;;;;;;5053044;28;20238;-76
2021/06/17 07:09:30;;;;;;;11.93;10.93;;;;;;;;;;5050985;28;20185;-76
2021/06/17 07:11:56;;;;;;;12.30;11.13;;;;;;;;;;5060572;28;20418;-76
2021/06/17 07:14:21;;;;;;;11.38;10.13;;;;;;;;;;5056020;28;20254;-77
2021/06/17 07:16:46;;;;;;;12.03;9.03;;;;;;;;;;5052715;28;20177;-76
2021/06/17 07:19:11;;;;;;;9.30;7.40;;;;;;;;;;5060312;28;20429;-75
2021/06/17 07:21:37;;;;;;;13.32;10.70;;;;;;;;;;5056359;28;20426;-75
2021/06/17 07:24:02;;;;;;;11.38;6.95;;;;;;;;;;5054521;28;20231;-76
2021/06/17 07:26:27;;;;;;;7.93;6.30;;;;;;;;;;5054206;28;20674;-76
2021/06/17 07:28:53;;;;;;;6.93;6.00;;;;;;;;;;5053390;28;20228;-75
2021/06/17 07:31:18;;;;;;;6.60;5.32;;;;;;;;;;5062707;28;20221;-75
2021/06/17 07:33:43;;;;;;;6.25;5.50;;;;;;;;;;5057431;28;20560;-75
2021/06/17 07:36:09;;;;;;;5.70;5.10;;;;;;;;;;5051035;28;20189;-76
2021/06/17 07:38:34;;;;;;;7.32;4.82;;;;;;;;;;5054772;28;20181;-75
2021/06/17 07:41:00;;;;;;;9.15;4.85;;;;;;;;;;5051321;28;20217;-76
2021/06/17 07:43:25;;;;;;;8.30;3.95;;;;;;;;;;5052287;28;20296;-74
2021/06/17 07:45:50;;;;;;;8.18;4.40;;;;;;;;;;5055253;28;20181;-74
2021/06/17 07:48:15;;;;;;;8.90;4.83;;;;;;;;;;5052562;28;20194;-73
2021/06/17 07:50:41;;;;;;;6.82;4.00;;;;;;;;;;5052104;28;20465;-74
2021/06/17 07:53:07;;;;;;;7.55;3.20;;;;;;;;;;5053561;28;20197;-75
2021/06/17 07:55:32;;;;;;;8.25;3.88;;;;;;;;;;5053717;28;20185;-74
2021/06/17 07:57:57;;;;;;;5.63;3.47;;;;;;;;;;5053700;28;20553;-75
2021/06/17 08:00:23;;;;;;;7.53;3.47;;;;;;;;;;5061548;28;20298;-75
2021/06/17 08:02:48;;;;;;;7.45;3.00;;;;;;;;;;5051248;28;20646;-76
2021/06/17 08:05:13;;;;;;;7.00;3.22;;;;;;;;;;5059254;28;20189;-74
2021/06/17 08:07:38;;;;;;;8.70;3.47;;;;;;;;;;5055146;28;20184;-75
2021/06/17 08:10:06;;;;;;;6.35;3.35;;;;;;;;;;5070933;28;20225;-76
2021/06/17 08:12:31;;;;;;;9.00;3.40;;;;;;;;;;5075782;28;20169;-74
2021/06/17 08:14:57;;;;;;;7.03;3.10;;;;;;;;;;5076880;28;20203;-76
2021/06/17 08:17:22;;;;;;;7.17;3.97;;;;;;;;;;5052861;28;20188;-74
2021/06/17 08:19:47;;;;;;;6.37;2.73;;;;;;;;;;5053487;28;20426;-76
2021/06/17 08:22:12;;;;;;;9.67;3.57;;;;;;;;;;5050117;28;20422;-75
2021/06/17 08:24:43;;;;;;;4.97;2.70;;;;;;;;;;5053520;28;20446;-75
2021/06/17 08:27:09;;;;;;;7.40;3.05;;;;;;;;;;5051401;28;20425;-76
2021/06/17 08:29:35;;;;;;;5.00;2.90;;;;;;;;;;5057392;28;20180;-76
2021/06/17 08:32:00;;;;;;;10.43;3.33;;;;;;;;;;5049465;28;20192;-76
2021/06/17 08:34:25;;;;;;;4.30;2.60;;;;;;;;;;5055860;28;20197;-76
2021/06/17 08:36:51;;;;;;;4.25;2.50;;;;;;;;;;5057404;28;20426;-77
2021/06/17 08:39:17;;;;;;;4.97;2.40;;;;;;;;;;5058573;28;20420;-76
2021/06/17 08:41:42;;;;;;;6.70;2.50;;;;;;;;;;5056982;28;20175;-75
2021/06/17 08:44:08;;;;;;;7.72;3.30;;;;;;;;;;5055176;28;20200;-75
2021/06/17 08:46:33;;;;;;;9.10;3.00;;;;;;;;;;5053612;28;20258;-76
2021/06/17 08:48:58;;;;;;;9.47;2.93;;;;;;;;;;5053389;28;20330;-76
2021/06/17 08:51:23;;;;;;;5.10;2.97;;;;;;;;;;5053081;28;20471;-76
2021/06/17 08:53:49;;;;;;;10.73;3.00;;;;;;;;;;5052746;28;20284;-73
2021/06/17 08:56:14;;;;;;;6.38;2.63;;;;;;;;;;5061781;28;20214;-75
2021/06/17 08:58:40;;;;;;;7.27;3.20;;;;;;;;;;5057035;28;20614;-75
2021/06/17 09:01:12;;;;;;;9.00;3.00;;;;;;;;;;5061165;28;20430;-75
2021/06/17 09:03:38;;;;;;;8.52;3.00;;;;;;;;;;5054121;28;20435;-77
2021/06/17 09:06:04;;;;;;;7.82;3.47;;;;;;;;;;5055921;28;20173;-75
2021/06/17 09:08:31;;;;;;;6.05;2.50;;;;;;;;;;5055044;28;20600;-76
2021/06/17 09:10:56;;;;;;;4.88;2.35;;;;;;;;;;5061676;28;20312;-75
2021/06/17 09:13:26;;;;;;;4.93;2.45;;;;;;;;;;5054131;28;20625;-76
2021/06/17 09:15:53;;;;;;;7.63;2.80;;;;;;;;;;5052843;28;20184;-75
2021/06/17 09:18:19;;;;;;;6.25;2.30;;;;;;;;;;5051960;28;20199;-76
2021/06/17 09:20:49;;;;;;;5.28;2.17;;;;;;;;;;5053841;28;20599;-75
2021/06/17 09:23:30;;;;;;;5.35;2.10;;;;;;;;;;5029620;28;20855;-76
2021/06/17 09:25:58;;;;;;;6.97;2.90;;;;;;;;;;5049339;28;20200;-75
2021/06/17 09:28:24;;;;;;;8.02;2.92;;;;;;;;;;5060036;28;20238;-75
2021/06/17 09:30:49;;;;;;;5.55;2.55;;;;;;;;;;5054724;28;20211;-76
2021/06/17 09:33:15;;;;;;;7.30;2.58;;;;;;;;;;5056495;28;20195;-76
2021/06/17 09:35:54;;;;;;;5.20;2.60;;;;;;;;;;5071417;28;20270;-76
2021/06/17 09:38:19;;;;;;;5.78;2.83;;;;;;;;;;5087023;28;20176;-76
2021/06/17 09:40:46;;;;;;;4.43;2.60;;;;;;;;;;5085534;28;20208;-75
2021/06/17 09:43:11;;;;;;;3.95;2.83;;;;;;;;;;5082986;28;20218;-76
2021/06/17 09:45:36;;;;;;;6.10;2.87;;;;;;;;;;5086941;28;20178;-77
2021/06/17 09:48:02;;;;;;;5.72;2.83;;;;;;;;;;5082944;28;20663;-76
2021/06/17 09:50:27;;;;;;;6.95;2.90;;;;;;;;;;5083920;28;20232;-77
2021/06/17 09:52:56;;;;;;;6.65;2.58;;;;;;;;;;5083758;28;20176;-77
2021/06/17 09:55:38;;;;;;;6.80;3.13;;;;;;;;;;5088992;28;20188;-76
2021/06/17 09:58:04;;;;;;;6.63;2.90;;;;;;;;;;5069507;28;20181;-74
2021/06/17 10:00:29;;;;;;;4.43;2.78;;;;;;;;;;5056259;28;20181;-75
2021/06/17 10:02:54;;;;;;;7.80;3.00;;;;;;;;;;5057848;28;20669;-75
2021/06/17 10:05:23;;;;;;;3.77;2.57;;;;;;;;;;5059592;28;20164;-74
2021/06/17 10:07:50;;;;;;;6.18;3.05;;;;;;;;;;5065355;28;20525;-75
2021/06/17 10:10:17;;;;;;;4.90;2.38;;;;;;;;;;5059314;28;20205;-74
2021/06/17 10:12:43;;;;;;;10.25;2.70;;;;;;;;;;5057244;28;20226;-75
2021/06/17 10:15:09;;;;;;;7.53;2.50;;;;;;;;;;5060130;28;20299;-74
2021/06/17 10:17:34;;;;;;;3.97;2.38;;;;;;;;;;5059168;28;20205;-75
2021/06/17 10:20:02;;;;;;;4.78;2.25;;;;;;;;;;5060167;28;20180;-74
2021/06/17 10:22:28;;;;;;;6.00;2.47;;;;;;;;;;5053524;28;20176;-75
2021/06/17 10:24:54;;;;;;;4.70;2.35;;;;;;;;;;5059373;28;20204;-75
2021/06/17 10:27:28;;;;;;;10.55;2.65;;;;;;;;;;5059065;28;20185;-75
2021/06/17 10:29:53;;;;;;;2.83;2.03;;;;;;;;;;5057694;28;20302;-75
2021/06/17 10:32:31;;;;;;;4.00;2.20;;;;;;;;;;5056984;28;20598;-75
2021/06/17 10:34:57;;;;;;;3.90;2.50;;;;;;;;;;5058255;28;20289;-75
2021/06/17 10:37:27;;;;;;;7.10;2.78;;;;;;;;;;5057591;28;20716;-74
2021/06/17 10:39:54;;;;;;;5.88;2.50;;;;;;;;;;5061041;28;20607;-76
2021/06/17 10:42:26;;;;;;;8.20;2.42;;;;;;;;;;5059167;28;20215;-75
2021/06/17 10:44:51;;;;;;;5.35;2.83;;;;;;;;;;5062547;28;20207;-74
2021/06/17 10:47:35;;;;;;;5.10;3.13;;;;;;;;;;5058826;28;20299;-75
2021/06/17 10:50:01;;;;;;;8.48;2.70;;;;;;;;;;5055512;28;20591;-76
2021/06/17 10:52:27;;;;;;;4.97;2.88;;;;;;;;;;5054085;28;20165;-75
2021/06/17 10:55:03;;;;;;;7.93;3.00;;;;;;;;;;5053382;28;20683;-75
2021/06/17 10:57:48;;;;;;;6.63;3.13;;;;;;;;;;5057984;28;20177;-74
2021/06/17 11:00:26;;;;;;;7.97;3.33;;;;;;;;;;5057695;28;20184;-76
2021/06/17 11:02:55;;;;;;;3.47;3.00;;;;;;;;;;5054093;28;20666;-74
2021/06/17 11:05:48;;;;;;;6.18;2.83;;;;;;;;;;5062054;28;20184;-74
2021/06/17 11:08:13;;;;;;;4.63;2.63;;;;;;;;;;5055388;28;20189;-75
2021/06/17 11:10:45;;;;;;;5.80;2.97;;;;;;;;;;5062395;28;20208;-75
2021/06/17 11:13:23;;;;;;;11.02;3.30;;;;;;;;;;5054527;28;20630;-76
2021/06/17 11:15:49;;;;;;;7.78;3.60;;;;;;;;;;5061114;28;20259;-76
2021/06/17 11:18:15;;;;;;;8.27;3.38;;;;;;;;;;5060208;28;20283;-76
2021/06/17 11:20:42;;;;;;;9.05;3.15;;;;;;;;;;5056953;28;20181;-75
2021/06/17 11:23:07;;;;;;;8.55;3.40;;;;;;;;;;5050923;28;20280;-77
2021/06/17 11:25:35;;;;;;;11.32;3.88;;;;;;;;;;5053483;28;20522;-75
2021/06/17 11:28:00;;;;;;;7.20;3.50;;;;;;;;;;5054820;28;20188;-76
2021/06/17 11:30:38;;;;;;;10.80;3.57;;;;;;;;;;5054382;28;20213;-75
2021/06/17 11:33:15;;;;;;;4.70;2.95;;;;;;;;;;5058445;28;20238;-75
2021/06/17 11:35:47;;;;;;;8.68;3.50;;;;;;;;;;5054272;28;20176;-76
2021/06/17 11:38:13;;;;;;;15.45;5.35;;;;;;;;;;5057106;28;20247;-75
2021/06/17 11:40:39;;;;;;;5.53;3.35;;;;;;;;;;5051642;28;20694;-76
2021/06/17 11:43:04;;;;;;;12.40;3.30;;;;;;;;;;5054540;28;20192;-76
2021/06/17 11:45:34;;;;;;;8.60;2.22;;;;;;;;;;5054442;28;20197;-75
2021/06/17 11:48:00;;;;;;;7.38;2.78;;;;;;;;;;5058658;28;20200;-75
2021/06/17 11:50:26;;;;;;;8.07;3.05;;;;;;;;;;5059426;28;20755;-75
2021/06/17 11:52:51;;;;;;;5.63;1.98;;;;;;;;;;5054008;28;20181;-76
2021/06/17 11:55:16;;;;;;;7.78;2.17;;;;;;;;;;5054824;28;20252;-74
2021/06/17 11:57:42;;;;;;;4.78;2.30;;;;;;;;;;5053311;28;20180;-76
2021/06/17 12:00:09;;;;;;;8.90;2.38;;;;;;;;;;5054708;28;20685;-74
2021/06/17 12:02:34;;;;;;;9.50;2.47;;;;;;;;;;5052451;28;20198;-76
2021/06/17 12:05:07;;;;;;;7.57;2.10;;;;;;;;;;5062279;28;20285;-74
2021/06/17 12:07:34;;;;;;;7.20;1.92;;;;;;;;;;5054718;28;20190;-76
2021/06/17 12:10:03;;;;;;;4.15;2.15;;;;;;;;;;5049048;28;20754;-74
2021/06/17 12:12:28;;;;;;;5.40;2.00;;;;;;;;;;5052999;28;20181;-75
2021/06/17 12:14:54;;;;;;;5.45;1.98;;;;;;;;;;5056612;28;20203;-75
2021/06/17 12:17:33;;;;;;;8.35;2.10;;;;;;;;;;5051934;28;20576;-74
2021/06/17 12:20:01;;;;;;;6.32;2.20;;;;;;;;;;5050030;28;20180;-74
2021/06/17 12:22:26;;;;;;;5.35;1.88;;;;;;;;;;5051395;28;20189;-75
2021/06/17 12:24:51;;;;;;;6.03;2.30;;;;;;;;;;5058193;28;20200;-75
2021/06/17 12:27:18;;;;;;;5.75;2.80;;;;;;;;;;5051962;28;20579;-76
2021/06/17 12:29:43;;;;;;;4.40;2.55;;;;;;;;;;5061803;28;20171;-76
2021/06/17 12:32:08;;;;;;;6.85;2.33;;;;;;;;;;5061773;28;20233;-74
2021/06/17 12:34:38;;;;;;;5.80;2.83;;;;;;;;;;5052897;28;20204;-75
2021/06/17 12:37:06;;;;;;;8.50;2.70;;;;;;;;;;5057287;28;20413;-74
2021/06/17 12:39:31;;;;;;;5.80;1.85;;;;;;;;;;5052753;28;20189;-74
2021/06/17 12:41:56;;;;;;;5.33;2.30;;;;;;;;;;5050987;28;20181;-74
2021/06/17 12:44:32;;;;;;;4.30;2.08;;;;;;;;;;5053088;28;20196;-75
2021/06/17 12:46:59;;;;;;;4.88;2.42;;;;;;;;;;5053380;28;20180;-75
2021/06/17 12:52:06;;;;;;;5.18;2.33;;;;;;;;;;5052316;28;20611;-76
2021/06/17 12:54:39;;;;;;;6.10;2.15;;;;;;;;;;5056580;28;20216;-75
2021/06/17 12:57:10;;;;;;;5.40;2.40;;;;;;;;;;5050441;28;20176;-76
2021/06/17 12:59:39;;;;;;;5.85;2.05;;;;;;;;;;5059964;28;20256;-77
2021/06/17 13:02:04;;;;;;;6.15;2.42;;;;;;;;;;5050677;28;20180;-75
2021/06/17 13:04:30;;;;;;;7.97;2.30;;;;;;;;;;5061574;28;20202;-75
2021/06/17 13:06:55;;;;;;;6.57;2.10;;;;;;;;;;5055552;28;20184;-74
2021/06/17 13:09:21;;;;;;;8.13;2.50;;;;;;;;;;5054116;28;20210;-73
2021/06/17 13:12:02;;;;;;;9.32;2.72;;;;;;;;;;5059473;28;20583;-74
2021/06/17 13:14:27;;;;;;;10.43;3.22;;;;;;;;;;5057873;28;20201;-74
2021/06/17 13:17:01;;;;;;;5.17;2.90;;;;;;;;;;5053703;28;20180;-73
2021/06/17 13:19:26;;;;;;;4.00;2.72;;;;;;;;;;5053102;28;20422;-74
2021/06/17 13:21:59;;;;;;;6.47;3.07;;;;;;;;;;5052957;28;20189;-74
2021/06/17 13:24:24;;;;;;;7.53;3.92;;;;;;;;;;5055566;28;20288;-74
2021/06/17 13:27:09;;;;;;;4.65;3.15;;;;;;;;;;5063021;28;20177;-74
2021/06/17 13:29:34;;;;;;;6.18;3.28;;;;;;;;;;5078554;28;20247;-73
2021/06/17 13:31:59;;;;;;;5.97;3.80;;;;;;;;;;5071087;28;20289;-76
2021/06/17 13:34:25;;;;;;;7.17;3.53;;;;;;;;;;5069373;28;20211;-75
2021/06/17 13:36:50;;;;;;;4.95;2.80;;;;;;;;;;5069110;28;20176;-75
2021/06/17 13:39:15;;;;;;;4.57;3.20;;;;;;;;;;5085355;28;20211;-76
2021/06/17 13:41:41;;;;;;;7.60;3.17;;;;;;;;;;5078010;28;20241;-75
2021/06/17 13:44:07;;;;;;;3.92;2.65;;;;;;;;;;5072107;28;20193;-76
2021/06/17 13:46:32;;;;;;;8.48;2.95;;;;;;;;;;5067728;28;20275;-75
2021/06/17 13:48:57;;;;;;;3.43;2.73;;;;;;;;;;5053568;28;20172;-76
2021/06/17 13:51:22;;;;;;;5.27;2.67;;;;;;;;;;5052923;28;20217;-74
2021/06/17 13:53:47;;;;;;;9.93;3.80;;;;;;;;;;5053632;28;20228;-76
2021/06/17 13:56:13;;;;;;;4.20;3.00;;;;;;;;;;5049778;28;20426;-75
2021/06/17 13:58:38;;;;;;;3.67;2.78;;;;;;;;;;5048057;28;20436;-76
2021/06/17 14:01:04;;;;;;;3.83;2.60;;;;;;;;;;5059392;28;20231;-75
2021/06/17 14:03:30;;;;;;;4.93;2.50;;;;;;;;;;5050110;28;20580;-75
2021/06/17 14:05:55;;;;;;;4.53;3.15;;;;;;;;;;5057154;28;20177;-75
2021/06/17 14:08:21;;;;;;;4.93;3.40;;;;;;;;;;5046902;28;20220;-75
2021/06/17 14:10:46;;;;;;;3.97;2.72;;;;;;;;;;5050243;28;20222;-76
2021/06/17 14:13:11;;;;;;;5.13;2.60;;;;;;;;;;5050366;28;20199;-76
2021/06/17 14:15:37;;;;;;;7.33;3.00;;;;;;;;;;5054111;28;20195;-76
2021/06/17 14:18:04;;;;;;;4.20;2.70;;;;;;;;;;5054092;28;20203;-76
2021/06/17 14:20:29;;;;;;;8.55;2.83;;;;;;;;;;5057945;28;20957;-76
2021/06/17 14:22:55;;;;;;;4.70;2.58;;;;;;;;;;5054176;28;20193;-74
2021/06/17 14:25:20;;;;;;;3.17;2.60;;;;;;;;;;5059328;28;20621;-75
2021/06/17 14:27:46;;;;;;;5.72;2.85;;;;;;;;;;5055562;28;20195;-76
2021/06/17 14:30:12;;;;;;;4.88;3.17;;;;;;;;;;5055395;28;20219;-75
2021/06/17 14:32:37;;;;;;;5.68;3.13;;;;;;;;;;5054772;28;20183;-76
2021/06/17 14:35:03;;;;;;;6.45;3.50;;;;;;;;;;5054259;28;20843;-73